sensor_id;sensor_type;location;lat;lon;timestamp;temperature;humidity
67131;HTU21D;54051;53.464;49.532;2023-04-15T00:01:48;-0.70;28.26
67131;HTU21D;54051;53.464;49.532;2023-04-15T00:04:14;-0.72;28.32
67131;HTU21D;54051;53.464;49.532;2023-04-15T00:06:40;-0.71;28.20
67131;HTU21D;54051;53.464;49.532;2023-04-15T00:09:06;-0.75;28.27
67131;HTU21D;54051;53.464;49.532;2023-04-15T00:11:32;-0.79;28.28
67131;HTU21D;54051;53.464;49.532;2023-04-15T00:13:58;-0.81;28.40
67131;HTU21D;54051;53.464;49.532;2023-04-15T00:16:25;-0.84;28.45
67131;HTU21D;54051;53.464;49.532;2023-04-15T00:18:51;-0.85;28.57
67131;HTU21D;54051;53.464;49.532;2023-04-15T00:21:17;-0.87;28.59
67131;HTU21D;54051;53.464;49.532;2023-04-15T00:23:43;-0.86;28.68
67131;HTU21D;54051;53.464;49.532;2023-04-15T00:26:10;-0.91;28.81
67131;HTU21D;54051;53.464;49.532;2023-04-15T00:28:37;-0.98;28.80
67131;HTU21D;54051;53.464;49.532;2023-04-15T00:31:04;-1.00;29.00
67131;HTU21D;54051;53.464;49.532;2023-04-15T00:33:30;-1.04;29.03
67131;HTU21D;54051;53.464;49.532;2023-04-15T00:35:56;-1.10;29.25
67131;HTU21D;54051;53.464;49.532;2023-04-15T00:38:22;-1.08;29.22
67131;HTU21D;54051;53.464;49.532;2023-04-15T00:40:49;-1.12;29.24
67131;HTU21D;54051;53.464;49.532;2023-04-15T00:43:15;-1.15;29.28
67131;HTU21D;54051;53.464;49.532;2023-04-15T00:45:41;-1.19;29.39
67131;HTU21D;54051;53.464;49.532;2023-04-15T00:48:08;-1.20;29.50
67131;HTU21D;54051;53.464;49.532;2023-04-15T00:50:34;-1.28;29.74
67131;HTU21D;54051;53.464;49.532;2023-04-15T00:53:01;-1.28;29.77
67131;HTU21D;54051;53.464;49.532;2023-04-15T00:55:27;-1.28;29.82
67131;HTU21D;54051;53.464;49.532;2023-04-15T00:57:53;-1.26;29.87
67131;HTU21D;54051;53.464;49.532;2023-04-15T01:00:20;-1.30;29.97
67131;HTU21D;54051;53.464;49.532;2023-04-15T01:02:46;-1.36;30.12
67131;HTU21D;54051;53.464;49.532;2023-04-15T01:05:12;-1.40;30.30
67131;HTU21D;54051;53.464;49.532;2023-04-15T01:07:42;-1.45;30.46
67131;HTU21D;54051;53.464;49.532;2023-04-15T01:10:08;-1.50;30.56
67131;HTU21D;54051;53.464;49.532;2023-04-15T01:12:34;-1.46;30.45
67131;HTU21D;54051;53.464;49.532;2023-04-15T01:15:03;-1.50;30.56
67131;HTU21D;54051;53.464;49.532;2023-04-15T01:17:29;-1.49;30.68
67131;HTU21D;54051;53.464;49.532;2023-04-15T01:19:55;-1.53;30.74
67131;HTU21D;54051;53.464;49.532;2023-04-15T01:22:25;-1.57;30.78
67131;HTU21D;54051;53.464;49.532;2023-04-15T01:25:24;-1.58;30.98
67131;HTU21D;54051;53.464;49.532;2023-04-15T01:27:45;-1.62;31.09
67131;HTU21D;54051;53.464;49.532;2023-04-15T01:30:11;-1.60;31.12
67131;HTU21D;54051;53.464;49.532;2023-04-15T01:32:37;-1.63;31.22
67131;HTU21D;54051;53.464;49.532;2023-04-15T01:35:04;-1.67;31.31
67131;HTU21D;54051;53.464;49.532;2023-04-15T01:37:31;-1.69;31.26
67131;HTU21D;54051;53.464;49.532;2023-04-15T01:39:57;-1.73;31.46
67131;HTU21D;54051;53.464;49.532;2023-04-15T01:42:23;-1.73;31.55
67131;HTU21D;54051;53.464;49.532;2023-04-15T01:44:49;-1.76;31.52
67131;HTU21D;54051;53.464;49.532;2023-04-15T01:47:15;-1.80;31.81
67131;HTU21D;54051;53.464;49.532;2023-04-15T01:49:41;-1.82;31.73
67131;HTU21D;54051;53.464;49.532;2023-04-15T01:52:07;-1.80;31.86
67131;HTU21D;54051;53.464;49.532;2023-04-15T01:54:33;-1.86;31.83
67131;HTU21D;54051;53.464;49.532;2023-04-15T01:57:00;-1.80;31.81
67131;HTU21D;54051;53.464;49.532;2023-04-15T01:59:27;-1.83;32.02
67131;HTU21D;54051;53.464;49.532;2023-04-15T02:01:53;-1.82;32.02
67131;HTU21D;54051;53.464;49.532;2023-04-15T02:04:19;-1.72;31.93
67131;HTU21D;54051;53.464;49.532;2023-04-15T02:06:46;-1.75;31.97
67131;HTU21D;54051;53.464;49.532;2023-04-15T02:09:12;-1.82;32.06
67131;HTU21D;54051;53.464;49.532;2023-04-15T02:11:38;-1.80;32.17
67131;HTU21D;54051;53.464;49.532;2023-04-15T02:14:04;-1.84;32.22
67131;HTU21D;54051;53.464;49.532;2023-04-15T02:16:31;-1.83;32.40
67131;HTU21D;54051;53.464;49.532;2023-04-15T02:18:59;-1.75;32.22
67131;HTU21D;54051;53.464;49.532;2023-04-15T02:21:25;-1.74;32.15
67131;HTU21D;54051;53.464;49.532;2023-04-15T02:23:52;-1.73;32.41
67131;HTU21D;54051;53.464;49.532;2023-04-15T02:26:19;-1.69;32.41
67131;HTU21D;54051;53.464;49.532;2023-04-15T02:28:46;-1.59;32.27
67131;HTU21D;54051;53.464;49.532;2023-04-15T02:31:12;-1.50;32.12
67131;HTU21D;54051;53.464;49.532;2023-04-15T02:33:38;-1.48;32.11
67131;HTU21D;54051;53.464;49.532;2023-04-15T02:36:05;-1.54;32.22
67131;HTU21D;54051;53.464;49.532;2023-04-15T02:38:32;-1.55;32.20
67131;HTU21D;54051;53.464;49.532;2023-04-15T02:40:58;-1.49;32.22
67131;HTU21D;54051;53.464;49.532;2023-04-15T02:43:24;-1.43;32.15
67131;HTU21D;54051;53.464;49.532;2023-04-15T02:45:50;-1.35;32.00
67131;HTU21D;54051;53.464;49.532;2023-04-15T02:48:17;-1.29;31.79
67131;HTU21D;54051;53.464;49.532;2023-04-15T02:50:45;-1.42;31.99
67131;HTU21D;54051;53.464;49.532;2023-04-15T02:53:11;-1.32;32.23
67131;HTU21D;54051;53.464;49.532;2023-04-15T02:55:39;-1.28;31.92
67131;HTU21D;54051;53.464;49.532;2023-04-15T02:58:05;-1.18;31.95
67131;HTU21D;54051;53.464;49.532;2023-04-15T03:00:31;-0.97;31.43
67131;HTU21D;54051;53.464;49.532;2023-04-15T03:03:01;-0.97;31.30
67131;HTU21D;54051;53.464;49.532;2023-04-15T03:05:28;-0.90;31.30
67131;HTU21D;54051;53.464;49.532;2023-04-15T03:07:54;-0.82;31.29
67131;HTU21D;54051;53.464;49.532;2023-04-15T03:10:21;-0.67;30.48
67131;HTU21D;54051;53.464;49.532;2023-04-15T03:12:47;-0.61;30.61
67131;HTU21D;54051;53.464;49.532;2023-04-15T03:15:14;-0.49;30.11
67131;HTU21D;54051;53.464;49.532;2023-04-15T03:17:41;1.08;27.96
67131;HTU21D;54051;53.464;49.532;2023-04-15T03:20:07;5.65;19.75
67131;HTU21D;54051;53.464;49.532;2023-04-15T03:22:34;8.42;15.52
67131;HTU21D;54051;53.464;49.532;2023-04-15T03:25:00;9.82;13.67
67131;HTU21D;54051;53.464;49.532;2023-04-15T03:27:26;10.24;12.78
67131;HTU21D;54051;53.464;49.532;2023-04-15T03:29:52;10.45;12.60
67131;HTU21D;54051;53.464;49.532;2023-04-15T03:32:18;11.74;10.91
67131;HTU21D;54051;53.464;49.532;2023-04-15T03:34:44;11.27;11.36
67131;HTU21D;54051;53.464;49.532;2023-04-15T03:37:10;10.54;12.25
67131;HTU21D;54051;53.464;49.532;2023-04-15T03:39:36;11.27;11.42
67131;HTU21D;54051;53.464;49.532;2023-04-15T03:42:02;11.75;10.96
67131;HTU21D;54051;53.464;49.532;2023-04-15T03:44:29;11.93;10.66
67131;HTU21D;54051;53.464;49.532;2023-04-15T03:46:55;12.62;10.09
67131;HTU21D;54051;53.464;49.532;2023-04-15T03:49:21;12.67;10.06
67131;HTU21D;54051;53.464;49.532;2023-04-15T03:51:47;12.73;9.79
67131;HTU21D;54051;53.464;49.532;2023-04-15T03:54:14;13.38;9.44
67131;HTU21D;54051;53.464;49.532;2023-04-15T03:56:40;13.14;9.45
67131;HTU21D;54051;53.464;49.532;2023-04-15T03:59:06;12.25;10.37
67131;HTU21D;54051;53.464;49.532;2023-04-15T04:01:32;11.30;10.99
67131;HTU21D;54051;53.464;49.532;2023-04-15T04:03:58;11.17;11.55
67131;HTU21D;54051;53.464;49.532;2023-04-15T04:06:25;13.12;9.54
67131;HTU21D;54051;53.464;49.532;2023-04-15T04:08:51;12.93;9.50
67131;HTU21D;54051;53.464;49.532;2023-04-15T04:11:17;12.07;10.50
67131;HTU21D;54051;53.464;49.532;2023-04-15T04:13:43;12.27;10.34
67131;HTU21D;54051;53.464;49.532;2023-04-15T04:16:09;12.79;10.00
67131;HTU21D;54051;53.464;49.532;2023-04-15T04:18:35;12.14;10.54
67131;HTU21D;54051;53.464;49.532;2023-04-15T04:21:01;13.25;9.50
67131;HTU21D;54051;53.464;49.532;2023-04-15T04:23:27;12.52;10.15
67131;HTU21D;54051;53.464;49.532;2023-04-15T04:25:54;12.69;9.98
67131;HTU21D;54051;53.464;49.532;2023-04-15T04:28:20;12.30;10.33
67131;HTU21D;54051;53.464;49.532;2023-04-15T04:30:46;11.69;11.04
67131;HTU21D;54051;53.464;49.532;2023-04-15T04:33:12;11.40;11.14
67131;HTU21D;54051;53.464;49.532;2023-04-15T04:35:38;11.33;11.36
67131;HTU21D;54051;53.464;49.532;2023-04-15T04:38:04;12.08;10.32
67131;HTU21D;54051;53.464;49.532;2023-04-15T04:40:30;0.00;10.02
67131;HTU21D;54051;53.464;49.532;2023-04-15T04:42:56;12.90;10.01
67131;HTU21D;54051;53.464;49.532;2023-04-15T04:45:22;14.97;7.85
67131;HTU21D;54051;53.464;49.532;2023-04-15T04:47:48;16.11;7.08
67131;HTU21D;54051;53.464;49.532;2023-04-15T04:50:15;15.53;7.27
67131;HTU21D;54051;53.464;49.532;2023-04-15T04:52:41;15.80;7.07
67131;HTU21D;54051;53.464;49.532;2023-04-15T04:55:07;16.75;6.52
67131;HTU21D;54051;53.464;49.532;2023-04-15T04:57:34;16.92;6.03
67131;HTU21D;54051;53.464;49.532;2023-04-15T05:00:05;15.28;7.37
67131;HTU21D;54051;53.464;49.532;2023-04-15T05:02:33;14.62;8.34
67131;HTU21D;54051;53.464;49.532;2023-04-15T05:04:59;16.12;6.83
67131;HTU21D;54051;53.464;49.532;2023-04-15T05:07:26;17.35;5.94
67131;HTU21D;54051;53.464;49.532;2023-04-15T05:09:52;18.40;4.96
67131;HTU21D;54051;53.464;49.532;2023-04-15T05:12:18;19.35;4.28
67131;HTU21D;54051;53.464;49.532;2023-04-15T05:14:44;17.85;5.46
67131;HTU21D;54051;53.464;49.532;2023-04-15T05:17:11;19.21;4.52
67131;HTU21D;54051;53.464;49.532;2023-04-15T05:19:37;18.67;4.88
67131;HTU21D;54051;53.464;49.532;2023-04-15T05:22:03;18.50;5.13
67131;HTU21D;54051;53.464;49.532;2023-04-15T05:24:29;19.15;4.51
67131;HTU21D;54051;53.464;49.532;2023-04-15T05:26:55;18.85;4.48
67131;HTU21D;54051;53.464;49.532;2023-04-15T05:29:22;17.80;5.02
67131;HTU21D;54051;53.464;49.532;2023-04-15T05:31:48;18.07;5.29
67131;HTU21D;54051;53.464;49.532;2023-04-15T05:34:14;19.06;4.75
67131;HTU21D;54051;53.464;49.532;2023-04-15T05:36:41;19.50;4.25
67131;HTU21D;54051;53.464;49.532;2023-04-15T05:39:07;19.40;3.90
67131;HTU21D;54051;53.464;49.532;2023-04-15T05:41:34;19.38;4.12
67131;HTU21D;54051;53.464;49.532;2023-04-15T05:44:00;18.77;4.82
67131;HTU21D;54051;53.464;49.532;2023-04-15T05:46:26;18.28;4.87
67131;HTU21D;54051;53.464;49.532;2023-04-15T05:48:53;18.03;5.41
67131;HTU21D;54051;53.464;49.532;2023-04-15T05:51:20;18.38;5.09
67131;HTU21D;54051;53.464;49.532;2023-04-15T05:53:46;18.35;5.08
67131;HTU21D;54051;53.464;49.532;2023-04-15T05:56:12;18.55;4.64
67131;HTU21D;54051;53.464;49.532;2023-04-15T05:58:38;19.55;4.05
67131;HTU21D;54051;53.464;49.532;2023-04-15T06:01:05;19.44;3.97
67131;HTU21D;54051;53.464;49.532;2023-04-15T06:03:31;17.15;5.99
67131;HTU21D;54051;53.464;49.532;2023-04-15T06:05:58;18.44;5.18
67131;HTU21D;54051;53.464;49.532;2023-04-15T06:08:24;20.01;4.06
67131;HTU21D;54051;53.464;49.532;2023-04-15T06:10:50;19.16;4.35
67131;HTU21D;54051;53.464;49.532;2023-04-15T06:13:16;19.27;4.68
67131;HTU21D;54051;53.464;49.532;2023-04-15T06:15:42;21.08;3.40
67131;HTU21D;54051;53.464;49.532;2023-04-15T06:18:08;19.15;4.21
67131;HTU21D;54051;53.464;49.532;2023-04-15T06:20:34;19.09;4.07
67131;HTU21D;54051;53.464;49.532;2023-04-15T06:23:01;18.88;4.12
67131;HTU21D;54051;53.464;49.532;2023-04-15T06:25:27;17.58;5.83
67131;HTU21D;54051;53.464;49.532;2023-04-15T06:27:53;18.57;4.64
67131;HTU21D;54051;53.464;49.532;2023-04-15T06:30:19;18.40;4.89
67131;HTU21D;54051;53.464;49.532;2023-04-15T06:32:45;19.41;4.15
67131;HTU21D;54051;53.464;49.532;2023-04-15T06:35:12;20.05;3.25
67131;HTU21D;54051;53.464;49.532;2023-04-15T06:37:38;18.26;4.84
67131;HTU21D;54051;53.464;49.532;2023-04-15T06:40:06;17.10;5.45
67131;HTU21D;54051;53.464;49.532;2023-04-15T06:42:34;18.32;4.16
67131;HTU21D;54051;53.464;49.532;2023-04-15T06:45:01;17.94;4.69
67131;HTU21D;54051;53.464;49.532;2023-04-15T06:47:27;17.48;5.24
67131;HTU21D;54051;53.464;49.532;2023-04-15T06:49:53;19.23;4.37
67131;HTU21D;54051;53.464;49.532;2023-04-15T06:52:19;19.71;3.92
67131;HTU21D;54051;53.464;49.532;2023-04-15T06:54:45;19.40;4.28
67131;HTU21D;54051;53.464;49.532;2023-04-15T06:57:11;19.42;4.44
67131;HTU21D;54051;53.464;49.532;2023-04-15T06:59:38;21.28;2.96
67131;HTU21D;54051;53.464;49.532;2023-04-15T07:02:04;20.84;2.56
67131;HTU21D;54051;53.464;49.532;2023-04-15T07:04:32;19.57;3.90
67131;HTU21D;54051;53.464;49.532;2023-04-15T07:06:58;20.20;2.89
67131;HTU21D;54051;53.464;49.532;2023-04-15T07:09:25;18.51;4.33
67131;HTU21D;54051;53.464;49.532;2023-04-15T07:11:51;18.53;4.22
67131;HTU21D;54051;53.464;49.532;2023-04-15T07:14:17;19.05;4.16
67131;HTU21D;54051;53.464;49.532;2023-04-15T07:16:43;18.74;3.92
67131;HTU21D;54051;53.464;49.532;2023-04-15T07:19:09;18.85;4.10
67131;HTU21D;54051;53.464;49.532;2023-04-15T07:21:35;19.02;4.20
67131;HTU21D;54051;53.464;49.532;2023-04-15T07:24:02;19.72;3.50
67131;HTU21D;54051;53.464;49.532;2023-04-15T07:26:28;20.92;3.04
67131;HTU21D;54051;53.464;49.532;2023-04-15T07:28:54;20.89;2.64
67131;HTU21D;54051;53.464;49.532;2023-04-15T07:31:21;18.87;3.83
67131;HTU21D;54051;53.464;49.532;2023-04-15T07:33:47;17.29;4.64
67131;HTU21D;54051;53.464;49.532;2023-04-15T07:36:13;18.24;4.03
67131;HTU21D;54051;53.464;49.532;2023-04-15T07:38:40;17.69;4.41
67131;HTU21D;54051;53.464;49.532;2023-04-15T07:41:06;18.36;4.48
67131;HTU21D;54051;53.464;49.532;2023-04-15T07:43:32;19.75;2.89
67131;HTU21D;54051;53.464;49.532;2023-04-15T07:45:58;18.27;3.64
67131;HTU21D;54051;53.464;49.532;2023-04-15T07:48:24;17.92;4.08
67131;HTU21D;54051;53.464;49.532;2023-04-15T07:50:51;17.81;3.98
67131;HTU21D;54051;53.464;49.532;2023-04-15T07:53:17;19.07;3.48
67131;HTU21D;54051;53.464;49.532;2023-04-15T07:55:43;20.85;2.47
67131;HTU21D;54051;53.464;49.532;2023-04-15T07:58:09;22.32;1.58
67131;HTU21D;54051;53.464;49.532;2023-04-15T08:00:36;22.34;1.76
67131;HTU21D;54051;53.464;49.532;2023-04-15T08:03:03;22.38;1.34
67131;HTU21D;54051;53.464;49.532;2023-04-15T08:05:29;19.50;2.91
67131;HTU21D;54051;53.464;49.532;2023-04-15T08:07:55;18.85;3.77
67131;HTU21D;54051;53.464;49.532;2023-04-15T08:10:21;20.15;2.22
67131;HTU21D;54051;53.464;49.532;2023-04-15T08:12:48;19.30;2.57
67131;HTU21D;54051;53.464;49.532;2023-04-15T08:15:14;18.28;3.65
67131;HTU21D;54051;53.464;49.532;2023-04-15T08:17:40;18.25;3.18
67131;HTU21D;54051;53.464;49.532;2023-04-15T08:20:06;16.86;4.56
67131;HTU21D;54051;53.464;49.532;2023-04-15T08:22:32;16.62;4.38
67131;HTU21D;54051;53.464;49.532;2023-04-15T08:24:59;17.52;4.06
67131;HTU21D;54051;53.464;49.532;2023-04-15T08:27:25;18.41;3.38
67131;HTU21D;54051;53.464;49.532;2023-04-15T08:29:51;17.80;3.58
67131;HTU21D;54051;53.464;49.532;2023-04-15T08:32:17;17.41;3.55
67131;HTU21D;54051;53.464;49.532;2023-04-15T08:34:43;17.15;3.29
67131;HTU21D;54051;53.464;49.532;2023-04-15T08:37:10;16.61;4.05
67131;HTU21D;54051;53.464;49.532;2023-04-15T08:39:36;17.18;3.63
67131;HTU21D;54051;53.464;49.532;2023-04-15T08:42:03;17.46;3.77
67131;HTU21D;54051;53.464;49.532;2023-04-15T08:44:35;17.67;3.89
67131;HTU21D;54051;53.464;49.532;2023-04-15T08:47:02;18.03;3.15
67131;HTU21D;54051;53.464;49.532;2023-04-15T08:49:31;16.91;3.60
67131;HTU21D;54051;53.464;49.532;2023-04-15T08:51:58;17.30;3.70
67131;HTU21D;54051;53.464;49.532;2023-04-15T08:54:25;17.19;3.72
67131;HTU21D;54051;53.464;49.532;2023-04-15T08:56:52;15.51;4.96
67131;HTU21D;54051;53.464;49.532;2023-04-15T08:59:19;0.00;6.18
67131;HTU21D;54051;53.464;49.532;2023-04-15T09:01:48;0.00;7.54
67131;HTU21D;54051;53.464;49.532;2023-04-15T09:04:15;11.93;7.95
67131;HTU21D;54051;53.464;49.532;2023-04-15T09:06:41;10.99;7.98
67131;HTU21D;54051;53.464;49.532;2023-04-15T09:09:07;10.01;9.25
67131;HTU21D;54051;53.464;49.532;2023-04-15T09:11:33;9.66;10.28
67131;HTU21D;54051;53.464;49.532;2023-04-15T09:14:00;9.54;9.64
67131;HTU21D;54051;53.464;49.532;2023-04-15T09:16:26;9.19;10.27
67131;HTU21D;54051;53.464;49.532;2023-04-15T09:18:56;9.38;10.67
67131;HTU21D;54051;53.464;49.532;2023-04-15T09:21:22;9.52;9.64
67131;HTU21D;54051;53.464;49.532;2023-04-15T09:23:59;9.66;9.56
67131;HTU21D;54051;53.464;49.532;2023-04-15T09:26:36;9.12;9.96
67131;HTU21D;54051;53.464;49.532;2023-04-15T09:29:07;9.22;10.17
67131;HTU21D;54051;53.464;49.532;2023-04-15T09:31:34;9.25;9.94
67131;HTU21D;54051;53.464;49.532;2023-04-15T09:34:01;8.62;9.98
67131;HTU21D;54051;53.464;49.532;2023-04-15T09:36:27;8.52;9.24
67131;HTU21D;54051;53.464;49.532;2023-04-15T09:38:55;8.47;9.52
67131;HTU21D;54051;53.464;49.532;2023-04-15T09:41:22;8.70;9.84
67131;HTU21D;54051;53.464;49.532;2023-04-15T09:43:48;8.66;8.98
67131;HTU21D;54051;53.464;49.532;2023-04-15T09:46:14;8.64;10.09
67131;HTU21D;54051;53.464;49.532;2023-04-15T09:48:41;8.89;10.28
67131;HTU21D;54051;53.464;49.532;2023-04-15T09:51:09;9.30;10.92
67131;HTU21D;54051;53.464;49.532;2023-04-15T09:53:36;9.60;9.56
67131;HTU21D;54051;53.464;49.532;2023-04-15T09:56:03;9.42;9.60
67131;HTU21D;54051;53.464;49.532;2023-04-15T09:58:33;9.04;10.49
67131;HTU21D;54051;53.464;49.532;2023-04-15T10:01:02;9.16;10.30
67131;HTU21D;54051;53.464;49.532;2023-04-15T10:03:31;8.97;10.49
67131;HTU21D;54051;53.464;49.532;2023-04-15T10:05:59;8.87;10.33
67131;HTU21D;54051;53.464;49.532;2023-04-15T10:08:33;8.96;9.99
67131;HTU21D;54051;53.464;49.532;2023-04-15T10:11:01;8.93;9.90
67131;HTU21D;54051;53.464;49.532;2023-04-15T10:13:29;9.00;10.35
67131;HTU21D;54051;53.464;49.532;2023-04-15T10:16:00;8.91;10.03
67131;HTU21D;54051;53.464;49.532;2023-04-15T10:18:33;9.04;10.00
67131;HTU21D;54051;53.464;49.532;2023-04-15T10:21:00;9.30;10.14
67131;HTU21D;54051;53.464;49.532;2023-04-15T10:23:27;9.37;9.85
67131;HTU21D;54051;53.464;49.532;2023-04-15T10:25:53;9.16;9.30
67131;HTU21D;54051;53.464;49.532;2023-04-15T10:28:20;9.05;9.36
67131;HTU21D;54051;53.464;49.532;2023-04-15T10:30:49;8.97;10.13
67131;HTU21D;54051;53.464;49.532;2023-04-15T10:33:20;8.87;10.20
67131;HTU21D;54051;53.464;49.532;2023-04-15T10:35:47;9.21;10.41
67131;HTU21D;54051;53.464;49.532;2023-04-15T10:41:19;9.31;10.15
67131;HTU21D;54051;53.464;49.532;2023-04-15T10:43:54;9.45;9.68
67131;HTU21D;54051;53.464;49.532;2023-04-15T10:49:16;9.17;10.12
67131;HTU21D;54051;53.464;49.532;2023-04-15T10:51:52;9.41;10.41
67131;HTU21D;54051;53.464;49.532;2023-04-15T10:57:05;9.36;9.51
67131;HTU21D;54051;53.464;49.532;2023-04-15T10:59:35;9.18;10.01
67131;HTU21D;54051;53.464;49.532;2023-04-15T11:07:13;9.10;10.35
67131;HTU21D;54051;53.464;49.532;2023-04-15T11:09:39;9.12;10.42
67131;HTU21D;54051;53.464;49.532;2023-04-15T11:12:09;9.35;10.17
67131;HTU21D;54051;53.464;49.532;2023-04-15T11:14:41;9.35;9.64
67131;HTU21D;54051;53.464;49.532;2023-04-15T11:17:08;9.33;9.91
67131;HTU21D;54051;53.464;49.532;2023-04-15T11:19:38;9.59;9.18
67131;HTU21D;54051;53.464;49.532;2023-04-15T11:22:08;9.65;9.81
67131;HTU21D;54051;53.464;49.532;2023-04-15T11:24:35;9.74;9.32
67131;HTU21D;54051;53.464;49.532;2023-04-15T11:27:02;9.60;9.32
67131;HTU21D;54051;53.464;49.532;2023-04-15T11:29:29;9.47;9.27
67131;HTU21D;54051;53.464;49.532;2023-04-15T11:32:07;9.24;9.48
67131;HTU21D;54051;53.464;49.532;2023-04-15T11:34:34;9.07;9.21
67131;HTU21D;54051;53.464;49.532;2023-04-15T11:37:04;9.17;9.97
67131;HTU21D;54051;53.464;49.532;2023-04-15T11:39:31;9.19;9.22
67131;HTU21D;54051;53.464;49.532;2023-04-15T11:41:57;9.01;9.78
67131;HTU21D;54051;53.464;49.532;2023-04-15T11:44:23;9.03;9.76
67131;HTU21D;54051;53.464;49.532;2023-04-15T11:46:49;9.16;10.04
67131;HTU21D;54051;53.464;49.532;2023-04-15T11:49:30;9.42;9.91
67131;HTU21D;54051;53.464;49.532;2023-04-15T11:51:58;9.41;10.03
67131;HTU21D;54051;53.464;49.532;2023-04-15T11:54:25;9.40;10.03
67131;HTU21D;54051;53.464;49.532;2023-04-15T11:56:52;9.35;9.88
67131;HTU21D;54051;53.464;49.532;2023-04-15T11:59:19;9.10;8.88
67131;HTU21D;54051;53.464;49.532;2023-04-15T12:01:45;9.14;8.97
67131;HTU21D;54051;53.464;49.532;2023-04-15T12:04:16;9.33;9.46
67131;HTU21D;54051;53.464;49.532;2023-04-15T12:06:45;9.27;9.28
67131;HTU21D;54051;53.464;49.532;2023-04-15T12:09:15;9.42;9.99
67131;HTU21D;54051;53.464;49.532;2023-04-15T12:11:49;9.53;11.02
67131;HTU21D;54051;53.464;49.532;2023-04-15T12:14:29;9.64;9.28
67131;HTU21D;54051;53.464;49.532;2023-04-15T12:17:01;9.47;9.98
67131;HTU21D;54051;53.464;49.532;2023-04-15T12:19:38;9.34;9.40
67131;HTU21D;54051;53.464;49.532;2023-04-15T12:22:08;9.37;10.47
67131;HTU21D;54051;53.464;49.532;2023-04-15T12:24:36;9.47;9.43
67131;HTU21D;54051;53.464;49.532;2023-04-15T12:27:04;9.38;9.36
67131;HTU21D;54051;53.464;49.532;2023-04-15T12:29:31;9.34;9.41
67131;HTU21D;54051;53.464;49.532;2023-04-15T12:32:11;9.23;9.51
67131;HTU21D;54051;53.464;49.532;2023-04-15T12:34:39;9.23;8.36
67131;HTU21D;54051;53.464;49.532;2023-04-15T12:37:07;9.21;8.43
67131;HTU21D;54051;53.464;49.532;2023-04-15T12:39:38;9.15;8.34
67131;HTU21D;54051;53.464;49.532;2023-04-15T12:42:05;9.00;8.69
67131;HTU21D;54051;53.464;49.532;2023-04-15T12:44:32;9.04;8.34
67131;HTU21D;54051;53.464;49.532;2023-04-15T12:46:58;8.95;7.87
67131;HTU21D;54051;53.464;49.532;2023-04-15T12:49:25;8.90;8.40
67131;HTU21D;54051;53.464;49.532;2023-04-15T12:51:52;9.03;8.10
67131;HTU21D;54051;53.464;49.532;2023-04-15T12:54:18;8.93;8.15
67131;HTU21D;54051;53.464;49.532;2023-04-15T12:56:46;9.05;8.45
67131;HTU21D;54051;53.464;49.532;2023-04-15T12:59:13;9.17;8.40
67131;HTU21D;54051;53.464;49.532;2023-04-15T13:01:39;9.00;8.25
67131;HTU21D;54051;53.464;49.532;2023-04-15T13:04:06;8.87;8.70
67131;HTU21D;54051;53.464;49.532;2023-04-15T13:06:32;8.94;9.01
67131;HTU21D;54051;53.464;49.532;2023-04-15T13:08:59;9.15;8.73
67131;HTU21D;54051;53.464;49.532;2023-04-15T13:11:27;9.15;9.49
67131;HTU21D;54051;53.464;49.532;2023-04-15T13:13:56;9.11;8.60
67131;HTU21D;54051;53.464;49.532;2023-04-15T13:16:23;9.19;9.24
67131;HTU21D;54051;53.464;49.532;2023-04-15T13:18:49;9.18;9.47
67131;HTU21D;54051;53.464;49.532;2023-04-15T13:21:15;9.20;9.92
67131;HTU21D;54051;53.464;49.532;2023-04-15T13:23:42;9.14;9.67
67131;HTU21D;54051;53.464;49.532;2023-04-15T13:26:08;9.16;10.20
67131;HTU21D;54051;53.464;49.532;2023-04-15T13:28:35;9.16;10.90
67131;HTU21D;54051;53.464;49.532;2023-04-15T13:31:01;9.18;10.89
67131;HTU21D;54051;53.464;49.532;2023-04-15T13:33:28;9.21;10.89
67131;HTU21D;54051;53.464;49.532;2023-04-15T13:35:54;9.17;11.07
67131;HTU21D;54051;53.464;49.532;2023-04-15T13:38:20;9.14;10.89
67131;HTU21D;54051;53.464;49.532;2023-04-15T13:40:46;9.30;11.11
67131;HTU21D;54051;53.464;49.532;2023-04-15T13:43:12;9.32;10.46
67131;HTU21D;54051;53.464;49.532;2023-04-15T13:45:38;9.16;12.06
67131;HTU21D;54051;53.464;49.532;2023-04-15T13:48:05;9.21;11.19
67131;HTU21D;54051;53.464;49.532;2023-04-15T13:50:31;9.26;10.28
67131;HTU21D;54051;53.464;49.532;2023-04-15T13:52:57;9.22;10.43
67131;HTU21D;54051;53.464;49.532;2023-04-15T13:55:23;9.16;10.66
67131;HTU21D;54051;53.464;49.532;2023-04-15T13:57:53;8.92;10.57
67131;HTU21D;54051;53.464;49.532;2023-04-15T14:00:19;8.78;9.95
67131;HTU21D;54051;53.464;49.532;2023-04-15T14:02:45;8.62;10.48
67131;HTU21D;54051;53.464;49.532;2023-04-15T14:05:11;8.64;11.09
67131;HTU21D;54051;53.464;49.532;2023-04-15T14:07:37;8.64;10.59
67131;HTU21D;54051;53.464;49.532;2023-04-15T14:10:04;8.63;10.59
67131;HTU21D;54051;53.464;49.532;2023-04-15T14:12:30;8.61;10.42
67131;HTU21D;54051;53.464;49.532;2023-04-15T14:14:56;8.50;10.85
67131;HTU21D;54051;53.464;49.532;2023-04-15T14:17:22;8.55;10.82
67131;HTU21D;54051;53.464;49.532;2023-04-15T14:19:48;8.52;10.62
67131;HTU21D;54051;53.464;49.532;2023-04-15T14:22:14;8.50;11.80
67131;HTU21D;54051;53.464;49.532;2023-04-15T14:24:40;8.41;10.43
67131;HTU21D;54051;53.464;49.532;2023-04-15T14:27:06;8.36;11.13
67131;HTU21D;54051;53.464;49.532;2023-04-15T14:29:33;8.33;11.02
67131;HTU21D;54051;53.464;49.532;2023-04-15T14:32:00;8.34;10.92
67131;HTU21D;54051;53.464;49.532;2023-04-15T14:34:26;8.27;9.98
67131;HTU21D;54051;53.464;49.532;2023-04-15T14:36:52;8.19;10.22
67131;HTU21D;54051;53.464;49.532;2023-04-15T14:39:19;8.11;10.18
67131;HTU21D;54051;53.464;49.532;2023-04-15T14:41:45;8.08;10.52
67131;HTU21D;54051;53.464;49.532;2023-04-15T14:44:12;8.01;10.20
67131;HTU21D;54051;53.464;49.532;2023-04-15T14:46:38;7.88;10.86
67131;HTU21D;54051;53.464;49.532;2023-04-15T14:49:06;7.89;10.57
67131;HTU21D;54051;53.464;49.532;2023-04-15T14:51:32;7.85;10.65
67131;HTU21D;54051;53.464;49.532;2023-04-15T14:53:59;7.75;10.91
67131;HTU21D;54051;53.464;49.532;2023-04-15T14:56:25;7.70;10.93
67131;HTU21D;54051;53.464;49.532;2023-04-15T14:58:52;7.67;11.30
67131;HTU21D;54051;53.464;49.532;2023-04-15T15:01:19;7.69;11.49
67131;HTU21D;54051;53.464;49.532;2023-04-15T15:03:46;7.60;11.68
67131;HTU21D;54051;53.464;49.532;2023-04-15T15:06:13;7.53;11.61
67131;HTU21D;54051;53.464;49.532;2023-04-15T15:08:39;7.45;11.84
67131;HTU21D;54051;53.464;49.532;2023-04-15T15:11:05;7.42;11.97
67131;HTU21D;54051;53.464;49.532;2023-04-15T15:13:31;7.37;12.74
67131;HTU21D;54051;53.464;49.532;2023-04-15T15:15:57;7.34;12.09
67131;HTU21D;54051;53.464;49.532;2023-04-15T15:18:23;7.27;11.76
67131;HTU21D;54051;53.464;49.532;2023-04-15T15:20:52;7.19;12.38
67131;HTU21D;54051;53.464;49.532;2023-04-15T15:23:18;7.14;12.67
67131;HTU21D;54051;53.464;49.532;2023-04-15T15:25:45;7.10;12.73
67131;HTU21D;54051;53.464;49.532;2023-04-15T15:28:12;7.09;12.76